KSUE/SUE METAR and TAF weather

Enter ICAO airport designator
Station Type Date Time Source
KSUE METAR 2019/04/25 11:56 UTC NOAA

KSUE 251156Z AUTO 20005KT 10SM CLR 10/05 A2978 RMK AO2 SLP109 T01000050 10111 20100 52004


Station Type Date Time Source
KSUE Decoded METAR 2019/04/25 11:56 UTC NOAA

Sturgeon Bay, WI, United States (KSUE) 44-51N 087-25W
Apr 25, 2019 - 07:56 AM EDT / 2019.04.25 1156 UTC
Wind: from the SSW (200 degrees) at 6 MPH (5 KT):0
Visibility: 10 mile(s):0
Sky conditions: clear
Temperature: 50.0 F (10.0 C)
Dew Point: 41.0 F (5.0 C)
Relative Humidity: 71%
Pressure (altimeter): 29.78 in. Hg (1008 hPa)
Pressure tendency: 0.01 inches (0.4 hPa) higher than three hours ago
ob: KSUE 251156Z AUTO 20005KT 10SM CLR 10/05 A2978 RMK AO2 SLP109 T01000050 10111 20100 52004
cycle: 12

Station Type Date Time Source
KSUE TAF UTC NOAA

Error!

Example: see airport list